Time;durP1;ratioP1;P1;durP2;ratioP2;P2;SDS_P1;SDS_P2;PMS_P1;PMS_P2;Temp;Humidity;BMP_temperature;BMP_pressure;BME280_temperature;BME280_humidity;BME280_pressure;Samples;Min_cycle;Max_cycle;Signal;HPM_P1;HPM_P2
2021/04/09 00:02:00;;;;;;;6.62;3.42;;;;;;;0.84;65.72;99660.58;1744304;81;21134;-65
2021/04/09 00:04:27;;;;;;;7.25;2.83;;;;;;;0.87;65.69;99655.00;1748511;81;29230;-64
2021/04/09 00:06:54;;;;;;;5.92;3.10;;;;;;;0.91;65.79;99655.81;1743934;80;21187;-65
2021/04/09 00:09:21;;;;;;;9.88;3.40;;;;;;;0.93;65.85;99651.95;1746108;80;21278;-65
2021/04/09 00:11:48;;;;;;;5.58;2.70;;;;;;;0.96;65.91;99651.48;1747972;81;21171;-65
2021/04/09 00:14:16;;;;;;;7.95;3.58;;;;;;;1.00;66.07;99642.86;1762436;80;21215;-65
2021/04/09 00:16:43;;;;;;;;;;;;;;;1.04;66.01;99639.41;1745028;81;21243;-65
2021/04/09 00:19:14;;;;;;;6.83;3.12;;;;;;;1.09;66.06;99644.48;1740504;81;20360;-64
2021/04/09 00:21:43;;;;;;;7.08;2.95;;;;;;;1.10;66.00;99641.92;1743873;81;21215;-65
2021/04/09 00:24:13;;;;;;;11.75;3.47;;;;;;;1.11;66.00;99638.47;1742556;81;21068;-65
2021/04/09 00:26:42;;;;;;;8.40;2.98;;;;;;;1.11;65.93;99640.19;1737627;81;21218;-65
2021/04/09 00:29:09;;;;;;;6.92;2.77;;;;;;;1.09;66.03;99640.22;1742158;81;21226;-65
2021/04/09 00:31:37;;;;;;;7.45;3.47;;;;;;;1.04;66.05;99638.56;1745187;81;21157;-65
2021/04/09 00:34:06;;;;;;;5.85;2.65;;;;;;;1.03;66.14;99632.55;1744068;81;21203;-65
2021/04/09 00:36:35;;;;;;;7.42;3.05;;;;;;;1.02;66.17;99637.28;1742658;80;21140;-65
2021/04/09 00:39:06;;;;;;;10.70;3.25;;;;;;;1.00;66.21;99635.15;1743336;81;21562;-64
2021/04/09 00:41:36;;;;;;;8.25;3.00;;;;;;;0.97;66.20;99645.47;1747115;81;21179;-65
2021/04/09 00:44:07;;;;;;;9.93;3.60;;;;;;;0.93;66.20;99642.96;1752016;80;21211;-65
2021/04/09 00:46:35;;;;;;;9.45;2.90;;;;;;;0.87;66.21;99643.43;1747633;81;22393;-65
2021/04/09 00:49:02;;;;;;;6.10;2.45;;;;;;;0.82;66.33;99636.63;1749889;81;21122;-64
2021/04/09 00:51:31;;;;;;;6.95;2.70;;;;;;;0.78;66.32;99647.78;1749533;81;21131;-65
2021/04/09 00:53:59;;;;;;;8.23;3.25;;;;;;;0.72;66.42;99633.70;1751256;81;21263;-65
2021/04/09 00:56:29;;;;;;;10.58;3.70;;;;;;;0.66;66.44;99631.60;1746145;81;21151;-65
2021/04/09 00:58:58;;;;;;;7.97;3.33;;;;;;;0.61;66.51;99626.09;1743425;82;21215;-65
2021/04/09 01:01:26;;;;;;;7.87;3.25;;;;;;;0.56;66.50;99633.84;1743680;81;21114;-65
2021/04/09 01:03:54;;;;;;;13.98;4.22;;;;;;;0.52;66.56;99632.16;1748116;81;21123;-65
2021/04/09 01:06:22;;;;;;;10.30;4.65;;;;;;;0.46;66.55;99631.36;1748162;81;21609;-65
2021/04/09 01:08:50;;;;;;;;;;;;;;;0.40;66.59;99638.68;1753347;80;21178;-65
2021/04/09 01:11:18;;;;;;;9.98;3.95;;;;;;;0.33;66.69;99640.86;1747840;81;21200;-66
2021/04/09 01:13:46;;;;;;;;;;;;;;;0.25;66.68;99640.05;1747963;81;21242;-65
2021/04/09 01:16:21;;;;;;;8.65;3.08;;;;;;;0.19;66.86;99639.23;1743993;81;20224;-65
2021/04/09 01:19:38;;;;;;;9.68;3.75;;;;;;;0.13;66.93;99630.28;1749448;81;22286;-65
2021/04/09 01:22:06;;;;;;;11.40;4.42;;;;;;;0.08;66.98;99635.87;1749083;80;21231;-65
2021/04/09 01:25:12;;;;;;;5.97;2.98;;;;;;;0.02;66.98;99630.78;1748323;80;22902;-64
2021/04/09 01:28:17;;;;;;;8.10;2.55;;;;;;;-0.01;67.07;99625.67;1747927;81;21151;-65
2021/04/09 01:31:22;;;;;;;5.47;2.77;;;;;;;-0.04;67.19;99620.56;1740129;81;21205;-66
2021/04/09 01:33:54;;;;;;;5.00;2.60;;;;;;;-0.06;67.31;99617.14;1741641;81;21417;-65
2021/04/09 01:36:35;;;;;;;8.25;3.35;;;;;;;-0.07;67.32;99618.02;1739144;81;21160;-65
2021/04/09 01:39:12;;;;;;;10.93;3.27;;;;;;;-0.08;67.33;99600.92;1733614;81;21208;-65
2021/04/09 01:41:41;;;;;;;6.25;2.70;;;;;;;-0.10;67.43;99606.05;1736673;81;21108;-66
2021/04/09 01:44:11;;;;;;;6.40;2.95;;;;;;;-0.10;67.56;99594.50;1739246;81;21144;-65
2021/04/09 01:46:42;;;;;;;11.48;3.20;;;;;;;-0.09;67.64;99592.78;1733057;81;21231;-65
2021/04/09 01:49:12;;;;;;;9.75;3.60;;;;;;;-0.09;67.45;99587.65;1731285;81;21183;-65
2021/04/09 01:51:39;;;;;;;11.80;3.72;;;;;;;-0.10;67.61;99591.09;1736002;81;21542;-66
2021/04/09 01:54:10;;;;;;;9.33;3.92;;;;;;;-0.12;67.68;99583.38;1727301;81;21252;-65
2021/04/09 01:56:38;;;;;;;14.90;4.25;;;;;;;-0.10;67.65;99579.53;1727787;81;21198;-65
2021/04/09 01:59:07;;;;;;;9.18;3.87;;;;;;;-0.09;67.80;99570.97;1734262;81;21222;-65
2021/04/09 02:01:39;;;;;;;7.12;3.27;;;;;;;-0.10;67.66;99569.27;1732391;81;21211;-65
2021/04/09 02:04:07;;;;;;;8.53;3.00;;;;;;;-0.13;67.77;99566.73;1735085;80;22165;-66
2021/04/09 02:06:35;;;;;;;7.60;3.00;;;;;;;-0.16;67.76;99561.62;1735729;81;21254;-66
2021/04/09 02:09:03;;;;;;;8.83;3.00;;;;;;;-0.17;67.87;99557.33;1727796;81;21077;-66
2021/04/09 02:11:34;;;;;;;6.10;3.33;;;;;;;-0.20;67.85;99558.63;1711755;81;21139;-66
2021/04/09 02:14:04;;;;;;;8.70;3.20;;;;;;;-0.21;67.95;99551.80;1736403;81;21132;-66
2021/04/09 02:16:32;;;;;;;10.32;2.95;;;;;;;-0.21;68.01;99545.39;1743768;81;21334;-66
2021/04/09 02:19:00;;;;;;;6.47;2.50;;;;;;;-0.21;68.08;99549.24;1738572;81;21191;-67
2021/04/09 02:21:28;;;;;;;4.90;2.72;;;;;;;-0.21;68.14;99547.95;1716012;81;21597;-66
2021/04/09 02:23:55;;;;;;;10.18;3.72;;;;;;;-0.23;68.28;99547.52;1748189;81;21172;-66
2021/04/09 02:26:23;;;;;;;5.55;2.80;;;;;;;-0.21;68.20;99545.39;1737983;81;21681;-66
2021/04/09 02:28:50;;;;;;;6.22;3.22;;;;;;;-0.21;68.25;99541.55;1736778;81;21412;-66
2021/04/09 02:31:17;;;;;;;5.90;2.85;;;;;;;-0.21;68.34;99537.70;1734146;81;21282;-66
2021/04/09 02:33:44;;;;;;;;;;;;;;;-0.18;68.28;99537.67;1752144;81;21347;-66
2021/04/09 02:36:15;;;;;;;7.67;2.55;;;;;;;-0.16;68.45;99535.95;1744611;81;20462;-66
2021/04/09 02:38:48;;;;;;;7.45;3.25;;;;;;;-0.15;68.35;99540.22;1737425;81;21175;-66
2021/04/09 02:41:17;;;;;;;8.93;3.22;;;;;;;-0.17;68.31;99531.66;1731389;81;21206;-66
2021/04/09 02:43:45;;;;;;;5.33;2.85;;;;;;;-0.19;68.41;99530.84;1730816;81;21199;-66
2021/04/09 02:46:18;;;;;;;7.87;3.20;;;;;;;-0.20;68.37;99518.86;1733420;81;21639;-66
2021/04/09 02:48:56;;;;;;;8.30;3.00;;;;;;;-0.18;68.47;99532.10;1730817;81;21132;-66
2021/04/09 02:51:24;;;;;;;8.35;3.65;;;;;;;-0.15;68.55;99529.95;1735457;81;21211;-66
2021/04/09 02:53:55;;;;;;;6.50;3.60;;;;;;;-0.14;68.52;99529.08;1736858;81;21582;-66
2021/04/09 02:56:25;;;;;;;5.00;3.02;;;;;;;-0.13;68.61;99536.78;1735899;81;21032;-66
2021/04/09 02:58:55;;;;;;;6.12;3.22;;;;;;;-0.12;68.56;99532.49;1739406;81;21616;-66
2021/04/09 03:01:24;;;;;;;9.55;3.50;;;;;;;-0.12;68.55;99529.92;1731587;81;21219;-66
2021/04/09 03:03:52;;;;;;;8.40;3.45;;;;;;;-0.13;68.55;99525.66;1742088;81;21131;-67
2021/04/09 03:06:20;;;;;;;9.00;3.67;;;;;;;-0.12;68.57;99523.51;1729003;81;21836;-66
2021/04/09 03:08:48;;;;;;;5.08;3.35;;;;;;;-0.12;68.67;99526.92;1736447;81;21234;-66
2021/04/09 03:11:15;;;;;;;7.87;4.00;;;;;;;-0.12;68.73;99511.95;1734920;81;21151;-67
2021/04/09 03:13:42;;;;;;;7.53;3.87;;;;;;;-0.10;68.69;99514.09;1739016;81;21182;-66
2021/04/09 03:16:13;;;;;;;8.23;4.12;;;;;;;-0.11;68.62;99514.53;1733267;81;27392;-66
2021/04/09 03:18:41;;;;;;;8.90;4.10;;;;;;;-0.11;68.70;99512.38;1736431;81;21274;-66
2021/04/09 03:21:08;;;;;;;8.53;4.45;;;;;;;-0.09;68.72;99514.50;1729521;80;21214;-66
2021/04/09 03:23:35;;;;;;;5.45;3.87;;;;;;;-0.08;68.73;99516.22;1743153;81;21167;-67
2021/04/09 03:26:02;;;;;;;7.35;3.80;;;;;;;-0.06;68.86;99509.34;1736415;81;21218;-66
2021/04/09 03:28:29;;;;;;;6.80;3.77;;;;;;;-0.04;68.83;99512.76;1730821;81;21073;-66
2021/04/09 03:30:56;;;;;;;6.78;4.10;;;;;;;0.01;68.89;99511.02;1728740;81;22600;-66
2021/04/09 03:33:24;;;;;;;8.00;4.55;;;;;;;0.03;68.88;99500.31;1731437;81;21072;-67
2021/04/09 03:35:52;;;;;;;7.67;4.28;;;;;;;0.05;68.82;99507.54;1737949;80;21146;-66
2021/04/09 03:38:20;;;;;;;8.78;4.20;;;;;;;0.05;68.79;99502.41;1755902;81;21681;-66
2021/04/09 03:40:48;;;;;;;6.47;3.67;;;;;;;0.05;68.82;99508.83;1750414;80;21872;-67
2021/04/09 03:43:15;;;;;;;7.45;4.10;;;;;;;0.03;68.84;99504.16;1743335;81;22603;-66
2021/04/09 03:45:42;;;;;;;8.40;4.37;;;;;;;0.02;68.86;99504.16;1741250;81;21278;-66
2021/04/09 03:48:10;;;;;;;9.75;5.10;;;;;;;0.01;68.88;99507.16;1749123;80;22237;-66
2021/04/09 03:50:37;;;;;;;10.25;4.80;;;;;;;-0.01;68.81;99502.47;1753601;81;21278;-66
2021/04/09 03:53:05;;;;;;;6.78;4.35;;;;;;;-0.02;68.94;99502.05;1749201;81;21190;-66
2021/04/09 03:55:33;;;;;;;9.50;5.33;;;;;;;-0.03;69.08;99487.09;1751545;81;21735;-66
2021/04/09 03:58:00;;;;;;;8.18;5.15;;;;;;;-0.01;69.00;99492.20;1753260;81;21229;-66
2021/04/09 04:00:28;;;;;;;9.18;4.60;;;;;;;0.01;69.04;99500.74;1745939;81;21114;-67
2021/04/09 04:02:55;;;;;;;10.08;4.67;;;;;;;0.01;68.98;99505.03;1744178;81;21222;-66
2021/04/09 04:05:22;;;;;;;9.33;5.05;;;;;;;0.00;69.01;99488.78;1776828;80;21231;-66
2021/04/09 04:07:49;;;;;;;8.03;4.83;;;;;;;0.01;69.07;99485.34;1751202;81;21277;-66
2021/04/09 04:10:16;;;;;;;11.00;4.50;;;;;;;0.03;69.04;99487.48;1774442;80;21210;-66
2021/04/09 04:12:44;;;;;;;6.95;4.62;;;;;;;0.06;69.11;99488.73;1777328;80;21161;-66
2021/04/09 04:15:11;;;;;;;12.90;4.55;;;;;;;0.10;69.13;99490.39;1774775;80;21525;-65
2021/04/09 04:17:38;;;;;;;8.88;5.03;;;;;;;0.21;69.25;99495.00;1744351;81;21173;-65
2021/04/09 04:20:07;;;;;;;9.10;4.58;;;;;;;0.39;69.26;99494.41;1756564;79;21208;-65
2021/04/09 04:22:34;;;;;;;11.43;4.58;;;;;;;0.62;69.19;99484.77;1754095;81;21198;-65
2021/04/09 04:25:02;;;;;;;18.52;4.65;;;;;;;0.86;69.13;99482.77;1754626;81;21143;-65
2021/04/09 04:27:30;;;;;;;;;;;;;;;1.09;68.89;99478.22;1754055;81;21197;-65
2021/04/09 04:29:56;;;;;;;18.62;4.10;;;;;;;1.10;68.68;99472.20;1756905;79;20506;-65
2021/04/09 04:32:24;;;;;;;6.20;4.08;;;;;;;1.11;68.75;99473.89;1756294;81;21653;-65
2021/04/09 04:34:51;;;;;;;6.17;4.15;;;;;;;1.13;68.62;99478.18;1751703;81;21122;-66
2021/04/09 04:37:18;;;;;;;6.95;4.20;;;;;;;1.06;68.71;99473.09;1734599;80;21126;-65
2021/04/09 04:39:45;;;;;;;10.10;4.85;;;;;;;1.03;68.73;99485.98;1757303;80;21226;-65
2021/04/09 04:42:12;;;;;;;7.85;4.12;;;;;;;1.01;68.81;99477.88;1755922;80;21143;-65
2021/04/09 04:44:39;;;;;;;7.37;4.47;;;;;;;1.08;68.95;99476.94;1756667;80;22579;-65
2021/04/09 04:47:06;;;;;;;8.63;4.03;;;;;;;1.20;68.87;99476.77;1756820;79;21214;-66
2021/04/09 04:49:33;;;;;;;10.32;4.78;;;;;;;1.23;68.73;99472.03;1748399;80;21163;-65
2021/04/09 04:52:01;;;;;;;9.58;5.12;;;;;;;1.25;68.77;99478.01;1732159;81;21159;-66
2021/04/09 04:54:28;;;;;;;5.92;3.83;;;;;;;1.26;68.76;99477.13;1756009;81;21202;-65
2021/04/09 04:56:55;;;;;;;6.37;3.87;;;;;;;1.29;68.79;99475.83;1758091;81;21186;-65
2021/04/09 04:59:22;;;;;;;11.45;4.80;;;;;;;1.31;68.82;99480.49;1757898;79;21041;-65
2021/04/09 05:01:49;;;;;;;8.50;4.58;;;;;;;1.34;68.82;99467.58;1758882;80;21214;-65
2021/04/09 05:04:16;;;;;;;15.10;4.42;;;;;;;1.45;68.90;99468.28;1756488;80;21117;-65
2021/04/09 05:06:44;;;;;;;9.28;4.90;;;;;;;1.60;68.95;99466.36;1752443;81;21179;-66
2021/04/09 05:09:11;;;;;;;8.88;4.55;;;;;;;1.81;68.98;99460.89;1750201;81;21230;-66
2021/04/09 05:11:38;;;;;;;10.65;4.17;;;;;;;2.13;68.84;99456.92;1750947;81;22003;-65
2021/04/09 05:14:05;;;;;;;10.38;4.85;;;;;;;2.30;68.43;99458.79;1755948;80;21232;-66
2021/04/09 05:16:32;;;;;;;7.20;4.78;;;;;;;2.37;68.34;99458.23;1749018;80;21593;-65
2021/04/09 05:18:59;;;;;;;6.55;4.30;;;;;;;2.40;68.23;99456.44;1726713;82;21072;-65
2021/04/09 05:21:27;;;;;;;9.38;4.70;;;;;;;2.33;68.13;99457.45;1723067;81;22384;-66
2021/04/09 05:24:03;;;;;;;14.43;5.90;;;;;;;2.36;68.27;99461.25;1754635;80;21087;-66
2021/04/09 05:26:30;;;;;;;16.15;7.15;;;;;;;2.41;68.33;99456.02;1753720;81;21153;-65
2021/04/09 05:28:59;;;;;;;13.53;6.75;;;;;;;2.51;68.39;99452.83;1755577;81;21692;-66
2021/04/09 05:31:35;;;;;;;9.23;5.25;;;;;;;2.72;68.29;99454.13;1757892;81;21170;-67
2021/04/09 05:34:03;;;;;;;11.33;5.53;;;;;;;2.73;68.10;99448.95;1755988;81;21409;-66
2021/04/09 05:36:30;;;;;;;21.07;5.30;;;;;;;2.73;68.14;99441.66;1748483;81;21084;-66
2021/04/09 05:41:53;;;;;;;5.97;4.80;;;;;;;3.36;68.29;99430.44;1757350;78;27699;-65
2021/04/09 05:44:20;;;;;;;6.87;4.78;;;;;;;3.96;68.24;99430.73;1721450;81;26687;-66
2021/04/09 05:46:48;;;;;;;8.08;4.20;;;;;;;4.52;67.76;99424.53;1686268;83;22176;-66
2021/04/09 05:49:15;;;;;;;;;;;;;;;4.91;66.83;99420.42;1722516;81;20997;-66
2021/04/09 05:51:42;;;;;;;;;;;;;;;5.19;66.65;99429.97;1699427;82;20142;-67
2021/04/09 05:54:10;;;;;;;14.60;4.53;;;;;;;5.43;66.74;99421.43;1700425;82;20328;-66
2021/04/09 05:56:37;;;;;;;7.97;3.92;;;;;;;5.56;66.86;99413.69;1695515;82;21582;-66
2021/04/09 05:59:05;;;;;;;7.62;4.15;;;;;;;5.66;66.66;99412.09;1689267;83;22172;-66
2021/04/09 06:01:32;;;;;;;6.95;4.33;;;;;;;5.66;66.25;99400.43;1696482;82;21641;-65
2021/04/09 06:04:00;;;;;;;7.03;3.90;;;;;;;5.39;65.98;99412.08;1692582;82;21612;-66
2021/04/09 06:06:30;;;;;;;10.10;5.25;;;;;;;5.20;65.91;99387.65;1731281;81;21183;-65
2021/04/09 06:08:58;;;;;;;44.05;7.10;;;;;;;4.94;66.18;99402.22;1732398;81;21220;-66
2021/04/09 06:11:25;;;;;;;12.55;6.30;;;;;;;4.91;66.56;99402.31;1731645;81;21203;-65
2021/04/09 06:13:52;;;;;;;9.70;5.50;;;;;;;5.03;66.51;99404.53;1730879;81;21052;-66
2021/04/09 06:16:19;;;;;;;12.35;4.95;;;;;;;5.11;66.29;99405.15;1731209;81;21259;-66
2021/04/09 06:18:47;;;;;;;10.95;5.10;;;;;;;5.06;66.15;99407.02;1730710;81;21146;-66
2021/04/09 06:21:14;;;;;;;9.43;4.47;;;;;;;4.95;66.08;99400.02;1730568;81;21197;-66
2021/04/09 06:23:41;;;;;;;11.97;4.92;;;;;;;4.79;65.74;99397.06;1733921;81;21263;-66
2021/04/09 06:26:08;;;;;;;38.08;5.67;;;;;;;4.60;65.87;99395.44;1730179;81;21666;-66
2021/04/09 06:28:35;;;;;;;;;;;;;;;4.57;66.02;99392.94;1734427;81;21786;-66
2021/04/09 06:31:02;;;;;;;8.95;4.42;;;;;;;4.62;66.06;99378.14;1731046;81;20159;-66
2021/04/09 06:33:30;;;;;;;8.55;4.62;;;;;;;4.64;65.99;99376.34;1733061;81;21203;-66
2021/04/09 06:35:56;;;;;;;9.38;5.40;;;;;;;4.65;65.99;99384.94;1732800;81;21206;-66
2021/04/09 06:38:25;;;;;;;21.80;6.10;;;;;;;4.73;66.00;99368.76;1729988;81;21225;-66
2021/04/09 06:40:53;;;;;;;10.10;5.12;;;;;;;4.84;65.96;99369.74;1731452;80;21194;-66
2021/04/09 06:43:23;;;;;;;8.30;4.90;;;;;;;4.87;65.83;99370.94;1706111;82;26841;-66
2021/04/09 06:45:51;;;;;;;9.30;5.28;;;;;;;4.95;65.67;99365.09;1710264;82;21135;-66
2021/04/09 06:48:21;;;;;;;12.10;5.33;;;;;;;4.94;65.47;99360.83;1738239;81;21875;-66
2021/04/09 06:50:48;;;;;;;6.40;3.85;;;;;;;5.02;65.44;99353.69;1712396;82;21228;-66
2021/04/09 06:53:16;;;;;;;24.05;5.58;;;;;;;5.01;65.29;99353.27;1706508;82;21644;-66
2021/04/09 06:55:46;;;;;;;8.00;4.62;;;;;;;4.98;65.08;99349.48;1728085;81;21585;-66
2021/04/09 06:58:17;;;;;;;9.50;4.05;;;;;;;5.02;65.43;99350.25;1727442;81;21309;-66
2021/04/09 07:00:56;;;;;;;48.78;6.15;;;;;;;5.08;65.16;99350.91;1729739;81;21258;-66
2021/04/09 07:03:23;;;;;;;8.50;4.35;;;;;;;5.06;64.91;99339.74;1704828;82;21048;-67
2021/04/09 07:05:50;;;;;;;22.52;4.72;;;;;;;5.07;65.00;99333.69;1711790;81;21117;-66
2021/04/09 07:08:17;;;;;;;9.88;4.17;;;;;;;5.10;65.12;99325.83;1692515;82;21203;-66
2021/04/09 07:10:44;;;;;;;7.47;4.40;;;;;;;5.16;64.79;99334.69;1707870;82;21669;-66
2021/04/09 07:13:12;;;;;;;13.28;4.75;;;;;;;5.21;64.74;99334.98;1707645;82;21646;-66
2021/04/09 07:15:45;;;;;;;8.73;4.65;;;;;;;5.23;64.33;99334.48;1712634;81;21243;-65
2021/04/09 07:18:18;;;;;;;13.10;5.58;;;;;;;5.20;64.30;99333.30;1710601;82;21104;-66
2021/04/09 07:20:45;;;;;;;13.35;4.92;;;;;;;5.23;64.42;99324.98;1707451;82;21193;-66
2021/04/09 07:23:16;;;;;;;11.22;4.37;;;;;;;5.28;64.29;99333.91;1717292;81;21140;-66
2021/04/09 07:25:45;;;;;;;9.30;4.65;;;;;;;5.37;64.41;99325.83;1709850;81;21298;-66
2021/04/09 07:28:17;;;;;;;8.50;4.40;;;;;;;5.55;64.65;99322.66;1702324;82;21198;-66
2021/04/09 07:30:52;;;;;;;5.85;3.75;;;;;;;5.80;64.26;99305.00;1734323;81;21657;-66
2021/04/09 07:33:25;;;;;;;13.50;4.12;;;;;;;5.86;64.08;99312.55;1707224;82;21015;-66
2021/04/09 07:35:56;;;;;;;24.65;5.17;;;;;;;5.94;64.05;99324.83;1715185;82;21249;-66
2021/04/09 07:38:31;;;;;;;9.30;5.03;;;;;;;5.98;63.95;99310.85;1710220;81;21425;-67
2021/04/09 07:41:05;;;;;;;13.68;4.95;;;;;;;6.12;63.99;99303.89;1715373;82;21717;-67
2021/04/09 07:43:35;;;;;;;9.43;5.25;;;;;;;6.27;63.32;99306.37;1731830;81;21202;-67
2021/04/09 07:46:05;;;;;;;11.45;4.65;;;;;;;6.32;63.50;99312.23;1719096;81;21076;-67
2021/04/09 07:48:36;;;;;;;14.70;4.58;;;;;;;6.50;63.33;99308.98;1719255;81;21167;-66
2021/04/09 07:51:07;;;;;;;17.10;5.08;;;;;;;6.61;63.55;99305.12;1706592;81;21375;-66
2021/04/09 07:53:40;;;;;;;14.70;4.15;;;;;;;6.73;63.22;99304.67;1734441;81;21313;-66
2021/04/09 07:56:11;;;;;;;8.63;5.03;;;;;;;6.88;63.23;99309.26;1733918;81;21697;-67
2021/04/09 07:58:44;;;;;;;19.10;5.85;;;;;;;7.01;63.03;99301.02;1710392;82;20992;-66
2021/04/09 08:01:26;;;;;;;11.83;5.17;;;;;;;7.10;62.65;99288.96;1713008;81;21702;-66
2021/04/09 08:03:55;;;;;;;12.98;4.40;;;;;;;7.09;62.10;99296.37;1712273;81;21146;-71
2021/04/09 08:06:24;;;;;;;12.20;4.70;;;;;;;7.06;62.24;99297.79;1714302;81;21250;-66
2021/04/09 08:08:57;;;;;;;25.43;4.95;;;;;;;7.15;62.21;99288.33;1720705;81;21580;-67
2021/04/09 08:11:35;;;;;;;12.80;4.45;;;;;;;7.26;61.24;99291.34;1711065;81;21109;-66
2021/04/09 08:14:17;;;;;;;13.85;4.37;;;;;;;7.27;61.69;99286.52;1715915;82;21065;-66
2021/04/09 08:16:47;;;;;;;8.40;4.60;;;;;;;7.39;61.88;99282.14;1728859;81;21209;-66
2021/04/09 08:19:25;;;;;;;9.35;3.98;;;;;;;7.51;61.39;99282.55;1727926;81;21673;-67
2021/04/09 08:21:58;;;;;;;19.52;4.65;;;;;;;7.66;61.71;99279.28;1721568;81;21016;-66
2021/04/09 08:24:29;;;;;;;15.00;4.17;;;;;;;7.77;61.05;99275.78;1734172;81;21602;-66
2021/04/09 08:26:56;;;;;;;18.20;4.47;;;;;;;7.83;61.21;99275.51;1714236;82;21110;-66
2021/04/09 08:29:28;;;;;;;36.88;6.28;;;;;;;7.89;60.78;99273.55;1733233;81;21197;-68
2021/04/09 08:31:57;;;;;;;12.33;4.80;;;;;;;7.96;60.81;99268.50;1733142;81;20996;-66
2021/04/09 08:34:26;;;;;;;11.38;4.78;;;;;;;8.14;60.98;99271.56;1735070;81;21641;-67
2021/04/09 08:36:54;;;;;;;7.75;4.55;;;;;;;8.28;60.63;99261.38;1735414;81;21036;-67
2021/04/09 08:39:21;;;;;;;14.80;5.70;;;;;;;8.41;61.02;99265.62;1720377;81;21130;-66
2021/04/09 08:41:49;;;;;;;10.50;4.33;;;;;;;8.57;60.60;99257.97;1712958;81;21414;-67
2021/04/09 08:44:17;;;;;;;9.58;4.37;;;;;;;8.71;60.21;99242.54;1725831;80;21582;-66
2021/04/09 08:46:45;;;;;;;10.23;4.42;;;;;;;8.71;59.93;99249.05;1687531;83;21939;-67
2021/04/09 08:49:16;;;;;;;28.85;5.58;;;;;;;8.67;59.39;99248.79;1722312;81;21068;-66
2021/04/09 08:51:45;;;;;;;21.37;4.90;;;;;;;8.53;59.35;99247.76;1685135;83;21160;-66
2021/04/09 08:54:30;;;;;;;46.98;6.72;;;;;;;8.43;59.17;99247.32;1720674;81;22668;-66
2021/04/09 08:57:00;;;;;;;18.73;6.35;;;;;;;8.37;58.78;99229.37;1720889;81;20985;-66
2021/04/09 08:59:44;;;;;;;27.00;5.87;;;;;;;8.45;59.31;99237.70;1685985;83;21028;-66
2021/04/09 09:02:27;;;;;;;31.95;6.45;;;;;;;8.45;59.06;99232.49;1691766;82;21173;-66
2021/04/09 09:05:12;;;;;;;66.87;7.87;;;;;;;8.41;58.99;99225.76;1705809;81;21632;-67
2021/04/09 09:07:54;;;;;;;23.52;6.80;;;;;;;8.68;59.05;99208.86;1725641;82;21406;-66
2021/04/09 09:10:38;;;;;;;17.90;5.30;;;;;;;8.82;59.02;99212.53;1725884;81;21168;-66
2021/04/09 09:13:15;;;;;;;13.13;5.72;;;;;;;8.81;58.44;99200.45;1728684;81;21162;-66
2021/04/09 09:15:52;;;;;;;12.45;4.95;;;;;;;8.83;58.63;99214.23;1725778;82;21060;-66
2021/04/09 09:18:28;;;;;;;31.07;5.70;;;;;;;8.82;58.11;99212.53;1726882;82;21227;-66
2021/04/09 09:21:09;;;;;;;19.87;5.65;;;;;;;8.83;58.06;99188.20;1725266;81;21333;-66
2021/04/09 09:24:02;;;;;;;20.08;6.00;;;;;;;8.79;57.96;99211.38;1727122;81;21967;-66
2021/04/09 09:26:38;;;;;;;10.23;4.95;;;;;;;8.88;57.07;99200.09;1727004;82;21178;-66
2021/04/09 09:29:25;;;;;;;12.45;4.50;;;;;;;8.95;57.58;99207.13;1727380;81;21076;-67
2021/04/09 09:32:08;;;;;;;17.73;4.72;;;;;;;9.08;56.95;99198.27;1725320;82;21190;-68
2021/04/09 09:34:41;;;;;;;25.27;7.70;;;;;;;9.18;57.26;99202.91;1725803;82;21206;-66
2021/04/09 09:37:34;;;;;;;13.90;5.92;;;;;;;9.12;55.60;99207.13;1723798;82;21608;-67
2021/04/09 09:40:06;;;;;;;27.73;9.35;;;;;;;9.05;56.48;99187.54;1727070;81;21629;-66
2021/04/09 09:42:42;;;;;;;38.78;6.90;;;;;;;9.08;56.42;99193.89;1728642;81;21206;-66
2021/04/09 09:45:35;;;;;;;;;;;;;;;9.11;56.52;99188.53;1728763;81;21614;-66
2021/04/09 09:48:19;;;;;;;31.60;6.10;;;;;;;8.99;55.64;99185.24;1725410;81;21324;-66
2021/04/09 09:50:45;;;;;;;58.20;8.38;;;;;;;8.97;56.16;99188.38;1727646;81;21265;-66
2021/04/09 09:53:13;;;;;;;16.60;5.75;;;;;;;9.01;56.29;99188.59;1728117;82;21131;-66
2021/04/09 09:55:47;;;;;;;19.90;6.10;;;;;;;9.18;56.56;99189.89;1728053;82;21100;-66
2021/04/09 09:58:31;;;;;;;12.30;4.62;;;;;;;9.30;55.91;99178.04;1726867;81;21211;-66
2021/04/09 10:01:00;;;;;;;25.77;5.47;;;;;;;9.34;55.14;99168.30;1726070;81;21696;-66
2021/04/09 10:03:38;;;;;;;12.60;5.42;;;;;;;9.51;56.24;99173.94;1728672;81;21545;-66
2021/04/09 10:06:14;;;;;;;;;;;;;;;9.66;55.95;99181.42;1729511;81;21062;-66
2021/04/09 10:08:43;;;;;;;9.88;4.92;;;;;;;9.75;55.38;99164.02;1726234;81;20338;-66
2021/04/09 10:11:19;;;;;;;12.95;5.22;;;;;;;9.82;55.27;99156.23;1722608;81;21203;-66
2021/04/09 10:13:49;;;;;;;10.65;4.80;;;;;;;9.88;54.96;99142.02;1707666;82;21222;-66
2021/04/09 10:16:22;;;;;;;9.50;5.92;;;;;;;9.94;55.39;99166.03;1726116;81;21088;-66
2021/04/09 10:18:53;;;;;;;11.10;6.10;;;;;;;10.01;55.25;99159.55;1727218;82;21681;-66
2021/04/09 10:21:32;;;;;;;13.20;5.72;;;;;;;10.14;55.28;99156.26;1729890;81;21262;-67
2021/04/09 10:24:15;;;;;;;8.03;5.33;;;;;;;10.28;55.25;99152.49;1722866;81;21634;-67
2021/04/09 10:26:52;;;;;;;11.22;5.10;;;;;;;10.34;55.11;99153.45;1727707;81;21326;-67
2021/04/09 10:29:30;;;;;;;;;;;;;;;10.33;54.92;99159.58;1729679;81;21222;-67
2021/04/09 10:32:01;;;;;;;7.92;4.15;;;;;;;10.51;55.07;99148.13;1725210;81;20238;-67
2021/04/09 10:34:33;;;;;;;11.65;5.28;;;;;;;10.60;54.91;99145.93;1706298;82;21242;-67
2021/04/09 10:37:04;;;;;;;22.93;6.42;;;;;;;10.73;54.99;99153.45;1728268;81;22445;-66
2021/04/09 10:39:32;;;;;;;15.78;5.55;;;;;;;10.72;52.92;99133.47;1727297;81;21254;-66
2021/04/09 10:42:04;;;;;;;38.70;6.28;;;;;;;10.62;54.16;99137.09;1727120;81;21831;-66
2021/04/09 10:44:32;;;;;;;12.05;3.90;;;;;;;10.70;54.28;99123.60;1725536;82;21148;-67
2021/04/09 10:47:05;;;;;;;37.48;6.50;;;;;;;10.83;54.05;99137.61;1725390;81;21772;-67
2021/04/09 10:49:40;;;;;;;20.08;5.53;;;;;;;10.81;53.67;99122.96;1725301;81;21048;-68
2021/04/09 10:52:17;;;;;;;13.05;5.67;;;;;;;10.68;52.58;99123.67;1725770;81;21203;-66
2021/04/09 10:54:47;;;;;;;11.25;5.15;;;;;;;10.59;52.95;99124.68;1703681;82;21181;-68
2021/04/09 10:57:18;;;;;;;19.55;4.75;;;;;;;10.57;52.83;99122.61;1726401;81;21149;-67
2021/04/09 10:59:51;;;;;;;13.80;5.42;;;;;;;10.61;53.26;99121.49;1723481;81;21048;-67
2021/04/09 11:02:24;;;;;;;50.52;7.15;;;;;;;10.66;53.26;99114.25;1726396;82;21569;-67
2021/04/09 11:04:58;;;;;;;38.63;7.05;;;;;;;10.72;52.80;99109.97;1723585;82;21152;-67
2021/04/09 11:07:47;;;;;;;8.73;5.22;;;;;;;10.67;52.70;99118.53;1725851;81;21218;-67
2021/04/09 11:10:37;;;;;;;14.07;5.97;;;;;;;10.71;52.78;99122.66;1724518;82;21040;-67
2021/04/09 11:13:05;;;;;;;9.55;5.17;;;;;;;10.86;52.73;99127.45;1726846;81;21146;-67
2021/04/09 11:15:41;;;;;;;7.22;4.15;;;;;;;10.85;52.42;99129.23;1727474;81;21239;-67
2021/04/09 11:18:09;;;;;;;9.83;3.80;;;;;;;10.85;52.02;99106.20;1726680;82;21219;-67
2021/04/09 11:20:39;;;;;;;;;;;;;;;10.85;52.32;99107.03;1731053;82;21811;-66
2021/04/09 11:23:13;;;;;;;5.30;3.90;;;;;;;10.90;51.92;99110.22;1727365;81;20470;-67
2021/04/09 11:25:44;;;;;;;11.85;5.25;;;;;;;10.95;51.24;99113.41;1724981;81;21746;-67
2021/04/09 11:28:28;;;;;;;10.48;5.10;;;;;;;10.98;51.79;99101.48;1726817;81;21159;-67
2021/04/09 11:31:06;;;;;;;37.20;6.67;;;;;;;11.02;51.56;99101.30;1725248;82;21195;-67
2021/04/09 11:33:39;;;;;;;15.23;5.12;;;;;;;11.07;51.73;99099.26;1726468;82;21207;-67
2021/04/09 11:36:21;;;;;;;14.38;4.53;;;;;;;11.19;51.71;99084.98;1723517;82;21099;-68
2021/04/09 11:39:05;;;;;;;24.90;6.30;;;;;;;11.18;51.32;99098.16;1722417;81;21175;-67
2021/04/09 11:41:35;;;;;;;8.43;4.15;;;;;;;11.16;51.04;99094.78;1720115;81;21242;-67
2021/04/09 11:44:24;;;;;;;40.05;6.67;;;;;;;11.17;51.22;99093.84;1729318;81;21380;-67
2021/04/09 11:46:52;;;;;;;18.52;4.65;;;;;;;11.21;50.89;99095.36;1679416;84;21282;-68
2021/04/09 11:49:29;;;;;;;12.53;4.30;;;;;;;11.29;51.09;99098.35;1672322;84;21285;-67
2021/04/09 11:52:01;;;;;;;154.93;14.85;;;;;;;11.46;51.18;99076.89;1673969;84;22073;-67
2021/04/09 11:55:54;;;;;;;26.02;6.62;;;;;;;11.79;51.21;99078.73;1830359;77;22245;-67
2021/04/09 11:58:29;;;;;;;15.20;4.62;;;;;;;11.77;50.70;99091.05;1805162;77;21217;-66
2021/04/09 12:01:01;;;;;;;22.20;5.47;;;;;;;11.74;50.64;99083.40;1800164;79;22134;-67
2021/04/09 12:03:41;;;;;;;31.85;5.60;;;;;;;11.70;49.85;99084.51;1803129;79;21079;-67